createdAt,value
2022-10-17T12:55:20.099Z,8.55
2022-10-17T12:57:50.122Z,8.02
2022-10-17T13:00:35.380Z,10.07
2022-10-17T13:03:25.425Z,8.60
2022-10-17T13:05:55.223Z,7.47
2022-10-17T13:08:33.261Z,7.80
2022-10-17T13:11:01.118Z,7.07
2022-10-17T13:13:48.854Z,7.45
2022-10-17T13:16:54.945Z,7.10
2022-10-17T13:19:29.199Z,9.60
2022-10-17T13:22:06.450Z,11.18
2022-10-17T13:24:40.286Z,8.60
2022-10-17T13:27:26.817Z,7.10
2022-10-17T13:29:56.795Z,8.05
2022-10-17T13:32:25.889Z,7.43
2022-10-17T13:35:27.790Z,10.07
2022-10-17T13:38:07.696Z,7.88
2022-10-17T13:40:49.668Z,7.93
2022-10-17T13:43:24.236Z,8.05
2022-10-17T13:46:25.585Z,8.48
2022-10-17T13:48:52.558Z,7.53
2022-10-17T13:51:19.936Z,8.23
2022-10-17T13:53:46.960Z,10.48
2022-10-17T13:56:33.690Z,8.38
2022-10-17T13:59:05.132Z,9.07
2022-10-17T14:01:32.627Z,8.05
2022-10-17T14:04:20.163Z,7.53
2022-10-17T14:06:49.809Z,8.80
2022-10-17T14:09:22.530Z,11.10
2022-10-17T14:12:04.264Z,8.23
2022-10-17T14:14:46.203Z,10.00
2022-10-17T14:17:24.498Z,8.57
2022-10-17T14:20:14.154Z,8.65
2022-10-17T14:22:50.425Z,8.02
2022-10-17T14:25:38.698Z,7.95
2022-10-17T14:28:11.870Z,7.90
2022-10-17T14:31:03.237Z,8.20
2022-10-17T14:33:31.916Z,13.45
2022-10-17T14:36:00.728Z,11.10
2022-10-17T14:38:29.114Z,8.38
2022-10-17T14:41:09.769Z,9.57
2022-10-17T14:43:51.899Z,8.70
2022-10-17T14:46:18.760Z,9.85
2022-10-17T14:48:47.683Z,9.93
2022-10-17T14:51:17.623Z,11.02
2022-10-17T14:54:19.187Z,11.57
2022-10-17T14:56:51.824Z,13.15
2022-10-17T14:59:52.104Z,8.55
2022-10-17T15:02:10.274Z,10.93
2022-10-17T15:04:37.245Z,10.75
2022-10-17T15:07:04.020Z,8.57
2022-10-17T15:09:31.169Z,8.27
2022-10-17T15:12:13.768Z,10.10
2022-10-17T15:14:40.513Z,9.73
2022-10-17T15:17:26.177Z,7.90
2022-10-17T15:19:53.247Z,8.70
2022-10-17T15:22:23.881Z,10.10
2022-10-17T15:27:23.335Z,7.95
2022-10-17T15:29:51.619Z,8.77
2022-10-17T15:32:18.755Z,11.55
2022-10-17T15:34:45.725Z,9.30
2022-10-17T15:37:34.012Z,7.47
2022-10-17T15:40:00.786Z,7.30
2022-10-17T15:42:29.922Z,8.68
2022-10-17T15:44:57.370Z,9.02
2022-10-17T15:47:35.421Z,12.20
2022-10-17T15:50:02.913Z,8.13
2022-10-17T15:52:35.645Z,8.52
2022-10-17T15:55:05.180Z,8.18
2022-10-17T15:57:36.476Z,9.60
2022-10-17T16:00:06.297Z,9.88
2022-10-17T16:02:34.160Z,8.93
2022-10-17T16:05:01.177Z,9.13
2022-10-17T16:07:28.096Z,10.20
2022-10-17T16:09:55.059Z,9.55
2022-10-17T16:12:30.004Z,11.80
2022-10-17T16:14:57.307Z,9.40
2022-10-17T16:17:24.080Z,8.40
2022-10-17T16:19:50.875Z,9.15
2022-10-17T16:22:30.114Z,8.60
2022-10-17T16:24:59.255Z,9.02
2022-10-17T16:27:26.627Z,9.75
2022-10-17T16:29:53.478Z,9.95
2022-10-17T16:32:20.229Z,12.85
2022-10-17T16:34:47.292Z,15.25
2022-10-17T16:37:14.299Z,9.55
2022-10-17T16:39:41.080Z,9.77
2022-10-17T16:42:07.840Z,12.05
2022-10-17T16:44:34.604Z,9.10
2022-10-17T16:47:01.565Z,10.18
2022-10-17T16:49:28.470Z,10.70
2022-10-17T16:51:55.172Z,10.30
2022-10-17T16:54:21.843Z,9.25
2022-10-17T16:56:49.876Z,10.10
2022-10-17T16:59:16.615Z,12.00
2022-10-17T17:01:43.426Z,8.57
2022-10-17T17:04:10.441Z,8.25
2022-10-17T17:06:37.387Z,7.90
2022-10-17T17:09:04.366Z,7.70
2022-10-17T17:11:32.396Z,7.65
2022-10-17T17:14:01.757Z,7.13
2022-10-17T17:16:30.136Z,7.28
2022-10-17T17:18:59.543Z,8.30
2022-10-17T17:21:29.620Z,9.40
2022-10-17T17:23:58.257Z,8.27
2022-10-17T17:26:26.268Z,7.22
2022-10-17T17:28:56.076Z,7.55
2022-10-17T17:31:26.657Z,8.37
2022-10-17T17:36:38.792Z,8.05
2022-10-17T17:39:08.645Z,7.85
2022-10-17T17:41:35.984Z,8.03
2022-10-17T17:44:03.944Z,8.80
2022-10-17T17:46:30.805Z,8.60
2022-10-17T17:48:57.611Z,8.50
2022-10-17T17:51:29.368Z,9.60
2022-10-17T17:53:56.845Z,12.68
2022-10-17T17:56:28.908Z,13.32
2022-10-17T17:58:58.663Z,10.68
2022-10-17T18:01:28.199Z,10.70
2022-10-17T18:03:56.585Z,11.77
2022-10-17T18:06:23.745Z,12.07
2022-10-17T18:08:53.214Z,10.75
2022-10-17T18:11:22.021Z,11.63
2022-10-17T18:14:01.539Z,11.88
2022-10-17T18:16:29.832Z,11.00
2022-10-17T18:18:59.508Z,11.13
2022-10-17T18:21:29.269Z,14.93
2022-10-17T18:23:56.273Z,13.43
2022-10-17T18:26:23.556Z,13.18
2022-10-17T18:28:50.765Z,11.38
2022-10-17T18:31:24.380Z,20.00
2022-10-17T18:33:52.986Z,11.35
2022-10-17T18:36:21.061Z,11.02
2022-10-17T18:38:48.372Z,11.10
2022-10-17T18:41:23.580Z,10.18
2022-10-17T18:43:51.710Z,11.07
2022-10-17T18:46:21.010Z,12.13
2022-10-17T18:48:49.129Z,13.05
2022-10-17T18:51:18.655Z,11.73
2022-10-17T18:53:48.323Z,12.18
2022-10-17T18:56:15.271Z,11.88
2022-10-17T18:58:42.396Z,11.90
2022-10-17T19:01:18.207Z,13.48
2022-10-17T19:03:47.121Z,10.40
2022-10-17T19:06:17.548Z,11.07
2022-10-17T19:08:45.481Z,11.70
2022-10-17T19:11:18.086Z,10.00
2022-10-17T19:16:26.623Z,11.65
2022-10-17T19:18:56.332Z,10.18
2022-10-17T19:21:23.725Z,12.75
2022-10-17T19:23:53.656Z,9.43
2022-10-17T19:26:21.252Z,9.75
2022-10-17T19:28:48.806Z,9.90
2022-10-17T19:31:17.938Z,8.68
2022-10-17T19:33:45.290Z,8.25
2022-10-17T19:36:13.252Z,9.35
2022-10-17T19:38:40.178Z,8.43
2022-10-17T19:41:09.605Z,8.00
2022-10-17T19:43:44.527Z,8.00
2022-10-17T19:46:16.763Z,7.85
2022-10-17T19:48:44.330Z,12.38
2022-10-17T19:51:13.743Z,7.22
2022-10-17T19:53:41.248Z,7.07
2022-10-17T19:56:09.394Z,6.38
2022-10-17T19:58:45.024Z,6.40
2022-10-17T20:01:20.223Z,7.25
2022-10-17T20:03:47.976Z,6.88
2022-10-17T20:06:15.710Z,7.70
2022-10-17T20:08:42.909Z,6.45
2022-10-17T20:11:12.761Z,6.85
2022-10-17T20:13:40.507Z,8.23
2022-10-17T20:16:09.004Z,6.57
2022-10-17T20:18:36.206Z,6.95
2022-10-17T20:21:06.371Z,6.65
2022-10-17T20:23:33.086Z,6.35
2022-10-17T20:26:25.389Z,6.75
2022-10-17T20:28:53.770Z,6.22
2022-10-17T20:31:20.875Z,5.82
2022-10-17T20:33:47.700Z,6.20
2022-10-17T20:36:17.316Z,6.95
2022-10-17T20:38:44.217Z,5.90
2022-10-17T20:41:11.013Z,6.30
2022-10-17T20:43:38.028Z,6.63
2022-10-17T20:46:22.877Z,6.68
2022-10-17T20:48:53.577Z,6.55
2022-10-17T20:51:21.120Z,6.22
2022-10-17T20:53:48.718Z,6.18
2022-10-17T20:56:35.045Z,5.90
2022-10-17T20:59:04.707Z,6.30
2022-10-17T21:01:33.097Z,7.03
2022-10-17T21:04:15.827Z,7.10
2022-10-17T21:06:51.877Z,6.30
2022-10-17T21:09:19.216Z,6.05
2022-10-17T21:11:46.701Z,6.10
2022-10-17T21:14:16.592Z,6.70
2022-10-17T21:16:43.992Z,5.93
2022-10-17T21:19:11.842Z,6.28
2022-10-17T21:21:41.282Z,6.53
2022-10-17T21:24:14.259Z,7.50
2022-10-17T21:26:42.436Z,6.55
2022-10-17T21:29:11.297Z,6.10
2022-10-17T21:31:40.910Z,8.75
2022-10-17T21:34:09.846Z,7.35
2022-10-17T21:36:36.670Z,6.65
2022-10-17T21:39:04.087Z,8.10
2022-10-17T21:41:31.405Z,7.47
2022-10-17T21:44:04.778Z,9.02
2022-10-17T21:46:32.027Z,7.85
2022-10-17T21:49:00.169Z,7.63
2022-10-17T21:51:27.629Z,8.98
2022-10-17T21:53:56.429Z,7.47
2022-10-17T21:56:28.069Z,7.63
2022-10-17T21:58:55.362Z,9.70
2022-10-17T22:01:24.912Z,7.90
2022-10-17T22:03:54.247Z,7.95
2022-10-17T22:06:40.513Z,9.82
2022-10-17T22:09:37.564Z,8.23
2022-10-17T22:12:04.474Z,9.77
2022-10-17T22:14:31.218Z,7.70
2022-10-17T22:16:57.877Z,8.23
2022-10-17T22:19:26.268Z,8.02
2022-10-17T22:21:53.805Z,8.20
2022-10-17T22:26:53.627Z,7.72
2022-10-17T22:29:20.755Z,8.02
2022-10-17T22:31:47.666Z,8.25
2022-10-17T22:34:16.637Z,8.73
2022-10-17T22:36:43.615Z,7.47
2022-10-17T22:39:10.830Z,7.47
2022-10-17T22:41:37.637Z,8.05
2022-10-17T22:44:04.681Z,7.00
2022-10-17T22:46:31.407Z,7.85
2022-10-17T22:48:58.399Z,8.43
2022-10-17T22:51:25.358Z,7.75
2022-10-17T22:53:52.150Z,8.13
2022-10-17T22:56:20.859Z,7.32
2022-10-17T22:58:47.972Z,7.63
2022-10-17T23:01:23.621Z,8.93
2022-10-17T23:03:51.836Z,7.75
2022-10-17T23:06:19.329Z,7.72
2022-10-17T23:08:46.278Z,7.68
2022-10-17T23:11:13.770Z,7.50
2022-10-17T23:13:40.876Z,7.25
2022-10-17T23:16:08.641Z,9.65
2022-10-17T23:18:36.844Z,7.22
2022-10-17T23:21:04.240Z,6.63
2022-10-17T23:23:30.924Z,6.82
2022-10-17T23:26:05.339Z,7.13
2022-10-17T23:28:33.694Z,7.18
2022-10-17T23:31:16.635Z,7.22
2022-10-17T23:33:45.055Z,7.75
2022-10-17T23:36:14.196Z,8.27
2022-10-17T23:38:42.673Z,6.88
2022-10-17T23:41:09.641Z,10.75
2022-10-17T23:43:37.069Z,7.78
2022-10-17T23:46:05.252Z,7.60
2022-10-17T23:48:32.013Z,7.22
2022-10-17T23:50:58.831Z,6.55
2022-10-17T23:53:26.481Z,6.88
2022-10-17T23:55:53.299Z,6.85
2022-10-17T23:58:20.042Z,6.95
